createdAt,value
2024-03-13T00:00:17.845Z,28.37
2024-03-13T00:00:49.816Z,29.40
2024-03-13T00:01:22.469Z,28.97
2024-03-13T00:01:54.668Z,29.03
2024-03-13T00:02:26.527Z,29.20
2024-03-13T00:02:59.813Z,28.73
2024-03-13T00:03:33.372Z,28.97
2024-03-13T00:04:06.482Z,27.23
2024-03-13T00:04:47.364Z,28.60
2024-03-13T00:05:22.395Z,27.77
2024-03-13T00:05:57.016Z,27.13
2024-03-13T00:06:29.333Z,27.30
2024-03-13T00:07:02.276Z,28.13
2024-03-13T00:07:34.127Z,27.20
2024-03-13T00:08:08.330Z,26.70
2024-03-13T00:08:41.049Z,27.63
2024-03-13T00:09:13.642Z,28.03
2024-03-13T00:09:47.034Z,27.47
2024-03-13T00:10:19.369Z,29.20
2024-03-13T00:10:51.781Z,27.90
2024-03-13T00:11:27.035Z,27.53
2024-03-13T00:11:58.893Z,28.57
2024-03-13T00:12:31.684Z,28.63
2024-03-13T00:13:03.565Z,28.77
2024-03-13T00:13:35.553Z,27.73
2024-03-13T00:14:07.679Z,27.67
2024-03-13T00:14:39.523Z,27.17
2024-03-13T00:15:12.360Z,29.07
2024-03-13T00:15:45.633Z,27.80
2024-03-13T00:16:17.569Z,26.33
2024-03-13T00:16:49.432Z,27.17
2024-03-13T00:17:21.601Z,27.47
2024-03-13T00:17:53.504Z,27.67
2024-03-13T00:18:25.450Z,28.47
2024-03-13T00:18:57.330Z,29.50
2024-03-13T00:19:29.219Z,26.60
2024-03-13T00:20:01.197Z,27.37
2024-03-13T00:20:33.090Z,27.70
2024-03-13T00:21:05.616Z,26.77
2024-03-13T00:21:40.150Z,26.30
2024-03-13T00:22:13.992Z,26.93
2024-03-13T00:22:46.718Z,26.63
2024-03-13T00:23:19.580Z,27.93
2024-03-13T00:23:53.789Z,28.93
2024-03-13T00:24:25.670Z,28.47
2024-03-13T00:24:58.297Z,28.77
2024-03-13T00:25:30.493Z,27.00
2024-03-13T00:26:02.340Z,27.00
2024-03-13T00:26:34.951Z,26.97
2024-03-13T00:27:07.010Z,28.67
2024-03-13T00:27:40.646Z,29.10
2024-03-13T00:28:12.720Z,28.10
2024-03-13T00:28:44.565Z,28.03
2024-03-13T00:29:16.367Z,27.13
2024-03-13T00:29:49.507Z,26.33
2024-03-13T00:30:22.119Z,27.73
2024-03-13T00:30:54.011Z,27.67
2024-03-13T00:31:25.929Z,27.70
2024-03-13T00:31:57.791Z,27.17
2024-03-13T00:32:29.664Z,26.17
2024-03-13T00:33:01.607Z,26.60
2024-03-13T00:33:33.460Z,28.20
2024-03-13T00:34:07.613Z,28.50
2024-03-13T00:34:39.872Z,27.13
2024-03-13T00:35:14.574Z,25.87
2024-03-13T00:35:46.413Z,27.70
2024-03-13T00:36:20.444Z,27.00
2024-03-13T00:36:52.329Z,27.47
2024-03-13T00:37:24.454Z,27.20
2024-03-13T00:37:56.453Z,26.63
2024-03-13T00:38:28.249Z,27.20
2024-03-13T00:39:00.119Z,27.53
2024-03-13T00:39:32.249Z,27.33
2024-03-13T00:40:07.636Z,26.87
2024-03-13T00:40:40.362Z,26.17
2024-03-13T00:41:12.222Z,25.63
2024-03-13T00:41:44.765Z,25.67
2024-03-13T00:42:17.455Z,26.63
2024-03-13T00:42:49.284Z,27.33
2024-03-13T00:43:22.067Z,26.77
2024-03-13T00:43:54.587Z,27.50
2024-03-13T00:44:26.522Z,28.47
2024-03-13T00:44:58.992Z,26.97
2024-03-13T00:45:30.827Z,25.17
2024-03-13T00:46:02.745Z,26.87
2024-03-13T00:46:35.098Z,26.87
2024-03-13T00:47:07.955Z,25.87
2024-03-13T00:47:40.072Z,27.33
2024-03-13T00:48:12.401Z,26.47
2024-03-13T00:48:44.350Z,26.33
2024-03-13T00:49:16.638Z,27.43
2024-03-13T00:49:48.481Z,28.13
2024-03-13T00:50:20.340Z,28.07
2024-03-13T00:50:52.144Z,27.27
2024-03-13T00:51:24.461Z,26.93
2024-03-13T00:51:56.318Z,27.13
2024-03-13T00:52:29.984Z,26.17
2024-03-13T00:53:02.301Z,27.00
2024-03-13T00:53:34.111Z,27.90
2024-03-13T00:54:06.057Z,27.97
2024-03-13T00:54:38.153Z,26.67
2024-03-13T00:55:12.023Z,26.63
2024-03-13T00:55:44.180Z,26.50
2024-03-13T00:56:17.053Z,27.23
2024-03-13T00:56:49.529Z,26.63
2024-03-13T00:57:21.497Z,27.77
2024-03-13T00:57:53.334Z,28.03
2024-03-13T00:58:25.283Z,25.93
2024-03-13T00:58:57.406Z,26.20
2024-03-13T00:59:30.826Z,26.33
2024-03-13T01:00:05.425Z,26.10
2024-03-13T01:00:38.272Z,26.13
2024-03-13T01:01:12.408Z,26.00
2024-03-13T01:01:49.631Z,25.53
2024-03-13T01:02:24.267Z,25.07
2024-03-13T01:02:56.220Z,26.57
2024-03-13T01:03:29.452Z,25.20
2024-03-13T01:04:01.339Z,27.00
2024-03-13T01:04:34.339Z,26.60
2024-03-13T01:05:06.299Z,26.13
2024-03-13T01:05:38.188Z,25.93
2024-03-13T01:06:09.992Z,25.07
2024-03-13T01:06:42.246Z,26.07
2024-03-13T01:07:14.130Z,26.67
2024-03-13T01:07:50.111Z,26.30
2024-03-13T01:08:22.244Z,25.67
2024-03-13T01:08:54.071Z,25.90
2024-03-13T01:09:25.940Z,27.87
2024-03-13T01:09:57.808Z,26.67
2024-03-13T01:10:29.669Z,25.83
2024-03-13T01:11:02.067Z,26.43
2024-03-13T01:11:35.283Z,26.90
2024-03-13T01:12:08.140Z,25.73
2024-03-13T01:12:40.888Z,27.17
2024-03-13T01:13:12.805Z,26.87
2024-03-13T01:13:44.697Z,26.73
2024-03-13T01:14:21.113Z,25.70
2024-03-13T01:14:52.979Z,26.07
2024-03-13T01:15:25.181Z,26.40
2024-03-13T01:15:57.119Z,26.10
2024-03-13T01:16:29.031Z,26.10
2024-03-13T01:17:02.687Z,26.43
2024-03-13T01:17:35.848Z,26.03
2024-03-13T01:18:10.730Z,25.60
2024-03-13T01:18:42.884Z,26.17
2024-03-13T01:19:14.808Z,26.50
2024-03-13T01:19:46.725Z,27.83
2024-03-13T01:20:20.177Z,28.00
2024-03-13T01:20:51.988Z,27.13
2024-03-13T01:21:23.787Z,27.30
2024-03-13T01:22:06.763Z,28.43
2024-03-13T01:22:41.106Z,27.43
2024-03-13T01:23:12.912Z,27.70
2024-03-13T01:23:44.818Z,28.27
2024-03-13T01:24:18.212Z,27.50
2024-03-13T01:24:50.065Z,28.30
2024-03-13T01:25:21.939Z,26.57
2024-03-13T01:25:55.723Z,27.27
2024-03-13T01:26:27.692Z,26.93
2024-03-13T01:27:00.115Z,26.27
2024-03-13T01:27:31.964Z,25.87
2024-03-13T01:28:04.087Z,25.50
2024-03-13T01:28:39.468Z,26.10
2024-03-13T01:29:11.313Z,26.40
2024-03-13T01:29:47.546Z,25.63
2024-03-13T01:30:19.658Z,26.70
2024-03-13T01:30:51.502Z,26.73
2024-03-13T01:31:24.949Z,26.53
2024-03-13T01:31:59.928Z,26.80
2024-03-13T01:32:31.959Z,26.03
2024-03-13T01:33:04.092Z,26.73
2024-03-13T01:33:42.178Z,27.53
2024-03-13T01:34:14.050Z,27.80
2024-03-13T01:34:47.867Z,26.60
2024-03-13T01:35:20.589Z,26.77
2024-03-13T01:35:52.955Z,26.93
2024-03-13T01:36:44.869Z,26.40
2024-03-13T01:37:35.280Z,27.50
2024-03-13T01:38:07.142Z,26.70
2024-03-13T01:38:39.071Z,26.33
2024-03-13T01:39:11.091Z,25.97
2024-03-13T01:39:43.027Z,26.47
2024-03-13T01:40:20.488Z,25.90
2024-03-13T01:41:11.062Z,26.57
2024-03-13T01:42:03.581Z,26.73
2024-03-13T01:42:54.066Z,26.30
2024-03-13T01:43:44.675Z,25.07
2024-03-13T01:44:34.834Z,25.57
2024-03-13T01:45:49.472Z,27.23
2024-03-13T01:46:40.643Z,26.17
2024-03-13T01:47:35.582Z,28.20
2024-03-13T01:48:43.457Z,26.70
2024-03-13T01:49:39.008Z,25.07
2024-03-13T01:50:37.057Z,25.07
2024-03-13T01:51:27.418Z,26.77
2024-03-13T01:52:24.106Z,27.50
2024-03-13T01:53:18.719Z,27.27
2024-03-13T01:54:09.184Z,26.13
2024-03-13T01:54:52.206Z,25.87
2024-03-13T01:55:29.839Z,24.40
2024-03-13T01:56:22.238Z,25.83
2024-03-13T01:57:01.893Z,26.73
2024-03-13T01:57:56.975Z,25.87
2024-03-13T01:58:41.217Z,26.43
2024-03-13T01:59:24.855Z,25.00
2024-03-13T02:00:16.381Z,25.37
2024-03-13T02:01:06.984Z,24.77
2024-03-13T02:01:57.453Z,25.10
2024-03-13T02:02:29.626Z,25.63
2024-03-13T02:03:01.896Z,25.03
2024-03-13T02:03:33.790Z,25.40
2024-03-13T02:04:06.131Z,24.63
2024-03-13T02:04:38.017Z,24.97
2024-03-13T02:05:10.398Z,24.83
2024-03-13T02:05:46.165Z,25.10
2024-03-13T02:06:18.250Z,26.83
2024-03-13T02:06:51.497Z,26.53
2024-03-13T02:07:25.019Z,26.00
2024-03-13T02:07:56.999Z,25.83
2024-03-13T02:08:33.623Z,25.43
2024-03-13T02:09:07.399Z,25.13
2024-03-13T02:09:39.317Z,24.30
2024-03-13T02:10:11.492Z,24.77
2024-03-13T02:10:43.587Z,26.20
2024-03-13T02:11:15.485Z,26.50
2024-03-13T02:11:47.590Z,24.83
2024-03-13T02:12:19.473Z,25.80
2024-03-13T02:13:04.563Z,25.70
2024-03-13T02:13:40.203Z,25.73
2024-03-13T02:14:12.002Z,24.90
2024-03-13T02:14:44.172Z,24.30
2024-03-13T02:15:16.014Z,25.17
2024-03-13T02:15:47.980Z,25.23
2024-03-13T02:16:19.895Z,23.93
2024-03-13T02:16:53.617Z,24.27
2024-03-13T02:17:25.822Z,23.50
2024-03-13T02:18:03.546Z,24.87
2024-03-13T02:18:36.982Z,24.47
2024-03-13T02:19:09.110Z,24.77
2024-03-13T02:19:41.496Z,26.10
2024-03-13T02:20:16.643Z,24.93
2024-03-13T02:20:50.209Z,23.50
2024-03-13T02:21:22.047Z,24.47
2024-03-13T02:21:59.241Z,25.13
2024-03-13T02:22:31.745Z,23.97
2024-03-13T02:23:07.063Z,23.60
2024-03-13T02:23:40.415Z,24.63
2024-03-13T02:24:13.181Z,26.73
2024-03-13T02:24:45.568Z,27.20
2024-03-13T02:25:17.478Z,24.47
2024-03-13T02:25:52.600Z,24.03
2024-03-13T02:26:26.094Z,24.30
2024-03-13T02:26:58.063Z,23.47
2024-03-13T02:27:29.909Z,24.10
2024-03-13T02:28:02.326Z,25.03
2024-03-13T02:28:35.898Z,23.30
2024-03-13T02:29:08.346Z,23.40
2024-03-13T02:29:44.110Z,22.73
2024-03-13T02:30:15.979Z,23.27
2024-03-13T02:30:48.766Z,24.20
2024-03-13T02:31:21.052Z,23.87
2024-03-13T02:31:53.202Z,22.37
2024-03-13T02:32:25.034Z,23.13
2024-03-13T02:32:56.913Z,24.43
2024-03-13T02:33:29.559Z,22.90
2024-03-13T02:34:01.480Z,23.83
2024-03-13T02:34:33.481Z,23.77
2024-03-13T02:35:05.497Z,24.23
2024-03-13T02:35:37.332Z,23.50
2024-03-13T02:36:09.664Z,22.67
2024-03-13T02:36:41.477Z,22.63
2024-03-13T02:37:13.372Z,22.50
2024-03-13T02:37:45.586Z,22.10
2024-03-13T02:38:17.420Z,23.03
2024-03-13T02:38:50.723Z,22.70
2024-03-13T02:39:22.605Z,22.80
2024-03-13T02:39:54.508Z,23.63
2024-03-13T02:40:26.386Z,23.23
2024-03-13T02:40:58.325Z,23.07
2024-03-13T02:41:30.159Z,22.83
2024-03-13T02:42:02.777Z,22.67
2024-03-13T02:42:34.640Z,22.53
2024-03-13T02:43:06.471Z,21.77
2024-03-13T02:43:41.465Z,24.40
2024-03-13T02:44:13.262Z,22.27
2024-03-13T02:44:45.305Z,22.53
2024-03-13T02:45:17.725Z,21.77
2024-03-13T02:45:49.933Z,22.97
2024-03-13T02:46:21.806Z,22.87
2024-03-13T02:46:55.286Z,22.33
2024-03-13T02:47:27.156Z,22.10
2024-03-13T02:47:59.240Z,22.33
2024-03-13T02:48:31.064Z,22.67
2024-03-13T02:49:02.956Z,22.97
2024-03-13T02:49:37.065Z,22.83
2024-03-13T02:50:13.005Z,24.87
2024-03-13T02:50:46.093Z,24.03
2024-03-13T02:51:17.966Z,22.97
2024-03-13T02:51:49.833Z,21.87
2024-03-13T02:52:21.981Z,23.37
2024-03-13T02:52:53.893Z,23.23
2024-03-13T02:53:25.772Z,24.23
2024-03-13T02:53:58.279Z,24.07
2024-03-13T02:54:30.131Z,24.50
2024-03-13T02:55:02.010Z,23.93
2024-03-13T02:55:34.440Z,24.27
2024-03-13T02:56:09.061Z,23.30
2024-03-13T02:56:40.884Z,23.47
2024-03-13T02:57:12.722Z,23.00
2024-03-13T02:57:46.028Z,24.13
2024-03-13T02:58:17.956Z,23.63
2024-03-13T02:58:50.484Z,23.77
2024-03-13T02:59:22.311Z,23.70
2024-03-13T02:59:54.157Z,24.03
2024-03-13T03:00:26.967Z,23.57
2024-03-13T03:00:59.991Z,23.80
2024-03-13T03:01:32.006Z,23.57
2024-03-13T03:02:07.232Z,24.70
2024-03-13T03:02:41.216Z,23.27
2024-03-13T03:03:14.489Z,25.13
2024-03-13T03:03:46.461Z,23.87
2024-03-13T03:04:19.982Z,23.63
2024-03-13T03:04:52.289Z,24.67
2024-03-13T03:05:25.424Z,24.87
2024-03-13T03:05:57.868Z,24.47
2024-03-13T03:06:29.697Z,25.27
2024-03-13T03:07:02.237Z,24.37
2024-03-13T03:07:35.164Z,24.93
2024-03-13T03:08:08.276Z,24.23
2024-03-13T03:08:43.222Z,24.93
2024-03-13T03:09:15.051Z,26.20
2024-03-13T03:09:46.894Z,24.93
2024-03-13T03:10:19.019Z,24.20
2024-03-13T03:10:51.723Z,25.83
2024-03-13T03:11:26.754Z,25.13
2024-03-13T03:11:58.627Z,26.67
2024-03-13T03:12:30.487Z,25.17
2024-03-13T03:13:02.354Z,23.47
2024-03-13T03:13:34.432Z,23.90
2024-03-13T03:14:06.435Z,25.23
2024-03-13T03:14:38.331Z,25.67
2024-03-13T03:15:13.244Z,25.67
2024-03-13T03:15:45.813Z,25.27
2024-03-13T03:16:19.475Z,24.80
2024-03-13T03:16:51.439Z,25.17
2024-03-13T03:17:23.801Z,24.47
2024-03-13T03:17:55.804Z,25.13
2024-03-13T03:18:27.772Z,25.30
2024-03-13T03:19:01.096Z,23.97
2024-03-13T03:19:35.429Z,24.83
2024-03-13T03:20:07.921Z,25.83
2024-03-13T03:20:41.114Z,27.03
2024-03-13T03:21:14.202Z,25.63
2024-03-13T03:21:46.092Z,25.03
2024-03-13T03:22:20.750Z,24.80
2024-03-13T03:22:52.650Z,24.13
2024-03-13T03:23:24.477Z,25.57
2024-03-13T03:23:58.792Z,26.20
2024-03-13T03:24:33.423Z,27.03
2024-03-13T03:25:06.869Z,27.17
2024-03-13T03:25:39.106Z,26.83
2024-03-13T03:26:17.702Z,26.10
2024-03-13T03:26:49.538Z,27.27
2024-03-13T03:27:21.401Z,27.33
2024-03-13T03:27:53.261Z,26.80
2024-03-13T03:28:25.154Z,28.73
2024-03-13T03:28:59.896Z,28.13
2024-03-13T03:29:31.700Z,27.87
2024-03-13T03:30:05.008Z,27.40
2024-03-13T03:30:42.857Z,26.47
2024-03-13T03:31:14.915Z,26.03
2024-03-13T03:31:46.766Z,25.40
2024-03-13T03:32:18.855Z,26.07
2024-03-13T03:32:50.811Z,25.50
2024-03-13T03:33:22.666Z,24.17
2024-03-13T03:33:54.548Z,25.03
2024-03-13T03:34:26.573Z,24.87
2024-03-13T03:34:58.457Z,25.60
2024-03-13T03:35:30.698Z,25.77
2024-03-13T03:36:03.007Z,25.53
2024-03-13T03:36:34.841Z,24.77
2024-03-13T03:37:07.208Z,25.00
2024-03-13T03:37:39.445Z,25.03
2024-03-13T03:38:11.407Z,25.30
2024-03-13T03:38:43.215Z,25.23
2024-03-13T03:39:16.336Z,25.37
2024-03-13T03:39:49.490Z,26.30
2024-03-13T03:40:24.385Z,24.90
2024-03-13T03:40:56.475Z,25.50
2024-03-13T03:41:28.337Z,24.13
2024-03-13T03:42:00.228Z,24.10
2024-03-13T03:42:32.428Z,26.33
2024-03-13T03:43:05.560Z,26.90
2024-03-13T03:43:38.658Z,25.67
2024-03-13T03:44:12.501Z,26.73
2024-03-13T03:44:44.313Z,26.80
2024-03-13T03:45:18.053Z,26.30
2024-03-13T03:45:51.054Z,26.73
2024-03-13T03:46:22.955Z,26.67
2024-03-13T03:46:54.799Z,25.67
2024-03-13T03:47:26.660Z,25.97
2024-03-13T03:48:04.785Z,25.40
2024-03-13T03:48:42.690Z,25.80
2024-03-13T03:49:14.583Z,25.07
2024-03-13T03:49:46.416Z,25.10
2024-03-13T03:50:18.444Z,25.73
2024-03-13T03:50:50.295Z,27.23
2024-03-13T03:51:22.097Z,26.30
2024-03-13T03:51:54.028Z,25.73
2024-03-13T03:52:25.938Z,27.33
2024-03-13T03:52:57.825Z,27.27
2024-03-13T03:53:29.685Z,25.97
2024-03-13T03:54:02.044Z,27.00
2024-03-13T03:54:35.603Z,27.07
2024-03-13T03:55:07.836Z,26.67
2024-03-13T03:55:39.732Z,27.57
2024-03-13T03:56:13.757Z,27.87
2024-03-13T03:56:46.904Z,25.47
2024-03-13T03:57:20.911Z,27.47
2024-03-13T03:57:52.773Z,26.10
2024-03-13T03:58:24.724Z,25.07
2024-03-13T03:58:56.605Z,26.27
2024-03-13T03:59:28.534Z,29.03
2024-03-13T04:00:01.838Z,27.20
2024-03-13T04:00:36.688Z,25.90
2024-03-13T04:01:09.058Z,26.03
2024-03-13T04:01:43.202Z,25.77
2024-03-13T04:02:17.616Z,25.73
2024-03-13T04:02:49.576Z,25.77
2024-03-13T04:03:21.438Z,25.80
2024-03-13T04:03:53.386Z,25.63
2024-03-13T04:04:27.427Z,26.30
2024-03-13T04:04:59.375Z,27.23
2024-03-13T04:05:31.775Z,28.17
2024-03-13T04:06:04.744Z,28.57
2024-03-13T04:06:36.595Z,26.47
2024-03-13T04:07:09.317Z,26.20
2024-03-13T04:07:41.292Z,28.17
2024-03-13T04:08:15.431Z,28.03
2024-03-13T04:08:49.065Z,27.20
2024-03-13T04:09:21.596Z,27.47
2024-03-13T04:09:53.706Z,27.17
2024-03-13T04:10:25.714Z,26.80
2024-03-13T04:10:57.694Z,26.57
2024-03-13T04:11:30.609Z,26.90
2024-03-13T04:12:02.511Z,27.17
2024-03-13T04:12:35.141Z,26.63
2024-03-13T04:13:07.116Z,26.70
2024-03-13T04:13:42.004Z,27.70
2024-03-13T04:14:13.958Z,28.13
2024-03-13T04:14:45.804Z,28.97
2024-03-13T04:15:22.526Z,29.30
2024-03-13T04:15:54.564Z,29.07
2024-03-13T04:16:26.909Z,28.27
2024-03-13T04:16:58.827Z,28.13
2024-03-13T04:17:30.635Z,27.30
2024-03-13T04:18:04.809Z,27.93
2024-03-13T04:18:37.230Z,28.40
2024-03-13T04:19:11.874Z,28.57
2024-03-13T04:19:43.850Z,26.63
2024-03-13T04:20:20.067Z,26.60
2024-03-13T04:20:52.043Z,26.57
2024-03-13T04:21:23.868Z,26.97
2024-03-13T04:21:55.770Z,26.70
2024-03-13T04:22:28.598Z,26.50
2024-03-13T04:23:01.419Z,27.40
2024-03-13T04:23:33.268Z,26.60
2024-03-13T04:24:06.341Z,25.53
2024-03-13T04:24:38.188Z,25.67
2024-03-13T04:25:10.072Z,26.63
2024-03-13T04:25:42.077Z,26.27
2024-03-13T04:26:16.192Z,26.77
2024-03-13T04:26:48.014Z,28.30
2024-03-13T04:27:21.104Z,28.70
2024-03-13T04:27:56.142Z,27.23
2024-03-13T04:28:28.326Z,26.53
2024-03-13T04:29:00.238Z,27.47
2024-03-13T04:29:38.685Z,26.10
2024-03-13T04:30:15.480Z,26.33
2024-03-13T04:30:50.013Z,26.47
2024-03-13T04:31:21.910Z,28.03
2024-03-13T04:31:53.809Z,28.40
2024-03-13T04:32:26.486Z,28.47
2024-03-13T04:32:59.294Z,28.77
2024-03-13T04:33:31.194Z,27.27
2024-03-13T04:34:03.084Z,27.13
2024-03-13T04:34:35.016Z,26.00
2024-03-13T04:35:07.193Z,26.80
2024-03-13T04:35:39.039Z,28.00
2024-03-13T04:36:10.893Z,27.77
2024-03-13T04:36:42.736Z,26.90
2024-03-13T04:37:16.554Z,26.80
2024-03-13T04:37:48.501Z,26.30
2024-03-13T04:38:20.366Z,27.13
2024-03-13T04:38:52.453Z,27.80
2024-03-13T04:39:24.367Z,26.63
2024-03-13T04:39:58.591Z,25.40
2024-03-13T04:40:30.491Z,25.13
2024-03-13T04:41:02.338Z,26.70
2024-03-13T04:41:34.804Z,27.63
2024-03-13T04:42:06.647Z,28.37
2024-03-13T04:42:38.505Z,27.80
2024-03-13T04:43:10.437Z,27.97
2024-03-13T04:43:42.352Z,28.33
2024-03-13T04:44:14.173Z,27.97
2024-03-13T04:44:46.018Z,26.90
2024-03-13T04:45:17.826Z,28.20
2024-03-13T04:45:49.729Z,27.57
2024-03-13T04:46:21.877Z,28.60
2024-03-13T04:46:53.711Z,27.23
2024-03-13T04:47:26.161Z,26.67
2024-03-13T04:47:58.068Z,27.13
2024-03-13T04:48:29.912Z,27.47
2024-03-13T04:49:01.768Z,26.43
2024-03-13T04:49:33.654Z,26.47
2024-03-13T04:50:05.794Z,27.50
2024-03-13T04:50:37.952Z,27.47
2024-03-13T04:51:10.354Z,27.03
2024-03-13T04:51:42.197Z,26.80
2024-03-13T04:52:14.098Z,28.20
2024-03-13T04:52:46.641Z,27.03
2024-03-13T04:53:24.084Z,27.27
2024-03-13T04:53:55.914Z,27.83
2024-03-13T04:54:27.736Z,27.27
2024-03-13T04:55:00.377Z,26.57
2024-03-13T04:55:32.330Z,26.70
2024-03-13T04:56:07.312Z,27.37
2024-03-13T04:56:39.589Z,26.87
2024-03-13T04:57:11.444Z,27.13
2024-03-13T04:57:43.321Z,26.10
2024-03-13T04:58:15.179Z,25.50
2024-03-13T04:58:47.054Z,25.87
2024-03-13T04:59:18.874Z,27.13
2024-03-13T04:59:51.626Z,26.93
2024-03-13T05:00:23.506Z,26.73
2024-03-13T05:00:55.388Z,27.23
2024-03-13T05:01:27.375Z,26.77
2024-03-13T05:01:59.456Z,26.07
2024-03-13T05:02:31.373Z,26.87
2024-03-13T05:03:04.575Z,28.37
2024-03-13T05:03:36.983Z,30.47
2024-03-13T05:04:08.964Z,35.13
2024-03-13T05:04:40.777Z,49.40
2024-03-13T05:05:18.277Z,48.63
2024-03-13T05:05:50.103Z,37.07
2024-03-13T05:06:22.249Z,31.50
2024-03-13T05:06:57.932Z,29.23
2024-03-13T05:07:29.790Z,27.97
2024-03-13T05:08:03.249Z,26.37
2024-03-13T05:08:35.307Z,26.20
2024-03-13T05:09:08.173Z,26.40
2024-03-13T05:09:42.816Z,26.67
2024-03-13T05:10:18.677Z,25.80
2024-03-13T05:10:51.220Z,27.00
2024-03-13T05:11:23.119Z,26.57
2024-03-13T05:11:54.985Z,26.70
2024-03-13T05:12:27.666Z,25.80
2024-03-13T05:12:59.689Z,25.53
2024-03-13T05:13:32.804Z,26.10
2024-03-13T05:14:04.700Z,26.13
2024-03-13T05:14:36.539Z,25.50
2024-03-13T05:15:09.780Z,25.93
2024-03-13T05:15:41.652Z,27.47
2024-03-13T05:16:14.395Z,28.00
2024-03-13T05:16:46.582Z,27.33
2024-03-13T05:17:18.421Z,25.80
2024-03-13T05:17:50.967Z,23.77
2024-03-13T05:18:23.003Z,25.27
2024-03-13T05:18:54.877Z,25.60
2024-03-13T05:19:26.740Z,25.83
2024-03-13T05:19:59.671Z,26.27
2024-03-13T05:20:31.542Z,25.97
2024-03-13T05:21:03.343Z,25.67
2024-03-13T05:21:35.193Z,25.30
2024-03-13T05:22:07.130Z,26.37
2024-03-13T05:22:39.025Z,26.53
2024-03-13T05:23:10.904Z,26.73
2024-03-13T05:23:42.734Z,26.10
2024-03-13T05:24:17.415Z,26.77
2024-03-13T05:24:50.849Z,26.80
2024-03-13T05:25:25.588Z,26.30
2024-03-13T05:25:57.485Z,23.87
2024-03-13T05:26:29.841Z,24.33
2024-03-13T05:27:01.658Z,25.37
2024-03-13T05:27:33.933Z,26.57
2024-03-13T05:28:05.945Z,25.60
2024-03-13T05:28:38.268Z,25.07
2024-03-13T05:29:10.809Z,25.67
2024-03-13T05:29:42.756Z,26.90
2024-03-13T05:30:14.686Z,26.37
2024-03-13T05:30:46.542Z,26.60
2024-03-13T05:31:18.386Z,25.40
2024-03-13T05:31:51.128Z,26.33
2024-03-13T05:32:23.036Z,28.17
2024-03-13T05:32:54.955Z,28.20
2024-03-13T05:33:26.836Z,27.77
2024-03-13T05:33:58.689Z,28.47
2024-03-13T05:34:30.609Z,28.57
2024-03-13T05:35:02.446Z,28.10
2024-03-13T05:35:34.463Z,27.73
2024-03-13T05:36:08.246Z,27.43
2024-03-13T05:36:40.111Z,28.30
2024-03-13T05:37:13.317Z,28.33
2024-03-13T05:37:45.266Z,27.70
2024-03-13T05:38:18.090Z,28.73
2024-03-13T05:38:50.125Z,29.33
2024-03-13T05:39:22.152Z,28.43
2024-03-13T05:39:54.130Z,26.23
2024-03-13T05:40:26.063Z,30.07
2024-03-13T05:40:59.180Z,30.63
2024-03-13T05:41:31.016Z,28.60
2024-03-13T05:42:02.884Z,27.83
2024-03-13T05:42:34.929Z,28.57
2024-03-13T05:43:06.831Z,27.73
2024-03-13T05:43:39.135Z,27.03
2024-03-13T05:44:11.394Z,26.13
2024-03-13T05:44:43.309Z,24.83
2024-03-13T05:45:15.399Z,24.80
2024-03-13T05:45:47.721Z,25.97
2024-03-13T05:46:19.665Z,27.17
2024-03-13T05:46:52.759Z,28.90
2024-03-13T05:47:24.588Z,29.47
2024-03-13T05:47:56.482Z,28.53
2024-03-13T05:48:28.569Z,27.03
2024-03-13T05:49:00.419Z,27.43
2024-03-13T05:49:32.282Z,27.17
2024-03-13T05:50:04.571Z,25.30
2024-03-13T05:50:36.821Z,25.03
2024-03-13T05:51:09.984Z,26.33
2024-03-13T05:51:42.255Z,26.03
2024-03-13T05:52:14.101Z,26.27
2024-03-13T05:52:49.137Z,25.93
2024-03-13T05:53:21.455Z,25.20
2024-03-13T05:53:53.273Z,27.20
2024-03-13T05:54:25.362Z,27.47
2024-03-13T05:54:57.420Z,27.37
2024-03-13T05:55:29.276Z,28.37
2024-03-13T05:56:01.695Z,28.73
2024-03-13T05:56:33.549Z,29.27
2024-03-13T05:57:05.378Z,29.60
2024-03-13T05:57:39.734Z,29.73
2024-03-13T05:58:12.099Z,28.37
2024-03-13T05:58:43.972Z,27.70
2024-03-13T05:59:15.780Z,29.73
2024-03-13T05:59:47.760Z,30.80
2024-03-13T06:00:20.856Z,27.73
2024-03-13T06:00:53.847Z,27.53
2024-03-13T06:01:28.433Z,32.10
2024-03-13T06:02:01.226Z,35.00
2024-03-13T06:02:33.626Z,33.07
2024-03-13T06:03:05.598Z,30.20
2024-03-13T06:03:37.714Z,27.50
2024-03-13T06:04:09.591Z,27.80
2024-03-13T06:04:41.523Z,29.30
2024-03-13T06:05:15.806Z,27.60
2024-03-13T06:05:47.677Z,27.80
2024-03-13T06:06:19.525Z,26.87
2024-03-13T06:06:52.622Z,26.70
2024-03-13T06:07:24.540Z,27.40
2024-03-13T06:07:59.763Z,28.90
2024-03-13T06:08:33.117Z,28.97
2024-03-13T06:09:04.961Z,29.00
2024-03-13T06:09:39.694Z,30.17
2024-03-13T06:10:12.023Z,31.90
2024-03-13T06:10:44.206Z,29.23
2024-03-13T06:11:19.948Z,27.57
2024-03-13T06:11:51.873Z,28.60
2024-03-13T06:12:23.770Z,29.57
2024-03-13T06:12:55.656Z,29.23
2024-03-13T06:13:27.617Z,30.50
2024-03-13T06:14:00.419Z,31.33
2024-03-13T06:14:32.308Z,29.00
2024-03-13T06:15:08.041Z,29.37
2024-03-13T06:15:39.856Z,36.07
2024-03-13T06:16:11.768Z,34.43
2024-03-13T06:16:43.724Z,32.30
2024-03-13T06:17:15.564Z,30.47
2024-03-13T06:17:47.726Z,29.10
2024-03-13T06:18:19.762Z,31.00
2024-03-13T06:18:51.899Z,31.77
2024-03-13T06:19:24.302Z,32.57
2024-03-13T06:19:56.199Z,31.80
2024-03-13T06:20:28.037Z,32.27
2024-03-13T06:20:59.882Z,31.57
2024-03-13T06:21:31.917Z,30.43
2024-03-13T06:22:03.794Z,30.07
2024-03-13T06:22:37.033Z,30.40
2024-03-13T06:23:09.002Z,28.10
2024-03-13T06:23:49.434Z,28.80
2024-03-13T06:24:31.519Z,27.73
2024-03-13T06:25:07.589Z,26.00
2024-03-13T06:25:40.408Z,28.20
2024-03-13T06:26:18.070Z,26.03
2024-03-13T06:26:51.787Z,28.57
2024-03-13T06:27:28.634Z,28.00
2024-03-13T06:28:23.115Z,27.20
2024-03-13T06:29:14.209Z,26.70
2024-03-13T06:29:59.358Z,30.40
2024-03-13T06:30:32.337Z,33.53
2024-03-13T06:31:04.461Z,29.63
2024-03-13T06:31:42.125Z,27.83
2024-03-13T06:32:15.742Z,27.40
2024-03-13T06:32:47.598Z,27.20
2024-03-13T06:33:19.509Z,27.13
2024-03-13T06:33:53.406Z,27.40
2024-03-13T06:34:25.317Z,28.57
2024-03-13T06:34:57.749Z,26.50
2024-03-13T06:35:32.119Z,28.03
2024-03-13T06:36:04.030Z,29.70
2024-03-13T06:36:37.843Z,31.43
2024-03-13T06:37:09.762Z,32.43
2024-03-13T06:37:41.699Z,28.53
2024-03-13T06:38:13.602Z,26.20
2024-03-13T06:38:47.383Z,25.40
2024-03-13T06:39:54.796Z,29.83
2024-03-13T06:40:26.912Z,31.67
2024-03-13T06:40:58.794Z,29.33
2024-03-13T06:41:30.792Z,27.90
2024-03-13T06:42:02.607Z,28.53
2024-03-13T06:42:34.438Z,28.77
2024-03-13T06:43:06.372Z,28.37
2024-03-13T06:43:38.317Z,28.30
2024-03-13T06:44:10.136Z,28.80
2024-03-13T06:44:42.013Z,30.87
2024-03-13T06:45:21.285Z,32.13
2024-03-13T06:45:59.751Z,31.90
2024-03-13T06:46:31.691Z,31.37
2024-03-13T06:47:03.602Z,30.13
2024-03-13T06:47:35.519Z,31.23
2024-03-13T06:48:07.566Z,29.90
2024-03-13T06:48:39.540Z,29.87
2024-03-13T06:49:11.452Z,30.43
2024-03-13T06:49:44.754Z,30.93
2024-03-13T06:50:50.366Z,29.73
2024-03-13T06:51:22.529Z,30.00
2024-03-13T06:51:54.423Z,29.47
2024-03-13T06:52:26.312Z,32.53
2024-03-13T06:52:58.260Z,28.63
2024-03-13T06:53:30.099Z,27.90
2024-03-13T06:54:01.973Z,27.17
2024-03-13T06:54:33.798Z,27.67
2024-03-13T06:55:05.690Z,29.17
2024-03-13T06:55:37.600Z,29.43
2024-03-13T06:56:09.438Z,28.17
2024-03-13T06:56:41.367Z,27.93
2024-03-13T06:57:15.906Z,26.17
2024-03-13T06:57:47.770Z,27.40
2024-03-13T06:58:19.589Z,27.07
2024-03-13T06:58:51.571Z,25.93
2024-03-13T06:59:24.571Z,27.17
2024-03-13T06:59:59.996Z,24.93
2024-03-13T07:00:34.323Z,25.90
2024-03-13T07:01:15.440Z,28.63
2024-03-13T07:01:47.786Z,27.87
2024-03-13T07:02:19.705Z,27.13
2024-03-13T07:02:51.645Z,27.43
2024-03-13T07:03:25.035Z,28.10
2024-03-13T07:03:57.323Z,26.83
2024-03-13T07:04:30.460Z,26.57
2024-03-13T07:05:02.332Z,27.80
2024-03-13T07:05:34.195Z,28.90
2024-03-13T07:06:07.539Z,27.80
2024-03-13T07:06:42.694Z,26.23
2024-03-13T07:07:14.614Z,27.17
2024-03-13T07:07:46.508Z,25.73
2024-03-13T07:08:19.452Z,25.47
2024-03-13T07:08:51.265Z,26.00
2024-03-13T07:09:23.078Z,26.93
2024-03-13T07:09:56.016Z,26.13
2024-03-13T07:10:28.074Z,26.27
2024-03-13T07:11:00.545Z,25.43
2024-03-13T07:11:32.533Z,25.57
2024-03-13T07:12:05.470Z,25.03